createdAt,value
2023-03-24T00:01:07.770Z,96702.09
2023-03-24T00:03:35.002Z,96693.03
2023-03-24T00:06:04.906Z,96695.31
2023-03-24T00:08:38.233Z,96704.53
2023-03-24T00:11:16.366Z,96694.75
2023-03-24T00:13:47.445Z,96697.56
2023-03-24T00:16:17.215Z,96698.53
2023-03-24T00:18:44.292Z,96689.28
2023-03-24T00:21:13.297Z,96690.81
2023-03-24T00:23:42.950Z,96689.50
2023-03-24T00:26:17.257Z,96698.72
2023-03-24T00:28:48.265Z,96693.63
2023-03-24T00:31:17.704Z,96696.44
2023-03-24T00:33:51.382Z,96689.50
2023-03-24T00:36:20.781Z,96686.28
2023-03-24T00:38:48.700Z,96684.56
2023-03-24T00:41:20.341Z,96693.03
2023-03-24T00:43:50.422Z,96690.03
2023-03-24T00:46:31.146Z,96680.06
2023-03-24T00:49:02.940Z,96672.72
2023-03-24T00:51:36.136Z,96679.88
2023-03-24T00:54:04.921Z,96675.53
2023-03-24T00:56:34.727Z,96676.09
2023-03-24T00:59:02.975Z,96672.72
2023-03-24T01:01:35.709Z,96669.88
2023-03-24T01:04:03.920Z,96674.22
2023-03-24T01:06:31.735Z,96671.94
2023-03-24T01:08:58.728Z,96675.53
2023-03-24T01:11:27.007Z,96668.91
2023-03-24T01:13:54.850Z,96665.91
2023-03-24T01:16:26.347Z,96670.25
2023-03-24T01:18:55.050Z,96658.00
2023-03-24T01:21:22.427Z,96658.00
2023-03-24T01:23:49.657Z,96651.06
2023-03-24T01:26:16.705Z,96648.03
2023-03-24T01:28:44.057Z,96650.47
2023-03-24T01:31:12.006Z,96643.31
2023-03-24T01:33:40.018Z,96641.22
2023-03-24T01:36:08.428Z,96644.44
2023-03-24T01:38:36.255Z,96639.00
2023-03-24T01:41:04.779Z,96636.16
2023-03-24T01:43:33.950Z,96633.13
2023-03-24T01:46:20.465Z,96634.25
2023-03-24T01:48:53.498Z,96635.41
2023-03-24T01:51:32.460Z,96628.22
2023-03-24T01:54:04.938Z,96619.56
2023-03-24T01:56:38.504Z,96619.56
2023-03-24T01:59:18.620Z,96616.56
2023-03-24T02:02:07.227Z,96615.59
2023-03-24T02:04:59.674Z,96596.22
2023-03-24T02:07:42.424Z,96594.91
2023-03-24T02:10:13.847Z,96590.59
2023-03-24T02:12:42.781Z,96584.94
2023-03-24T02:15:11.826Z,96584.94
2023-03-24T02:17:57.520Z,96585.69
2023-03-24T02:20:47.886Z,96586.25
2023-03-24T02:23:42.738Z,96582.69
2023-03-24T02:26:30.733Z,96567.63
2023-03-24T02:29:06.752Z,96569.13
2023-03-24T02:31:50.475Z,96571.97
2023-03-24T02:34:42.338Z,96575.16
2023-03-24T02:37:49.545Z,96572.88
2023-03-24T02:40:30.933Z,96566.47
2023-03-24T02:43:41.857Z,96550.13
2023-03-24T02:46:38.495Z,96540.16
2023-03-24T02:49:31.220Z,96533.00
2023-03-24T02:52:11.453Z,96528.69
2023-03-24T02:54:51.808Z,96530.75
2023-03-24T02:57:28.476Z,96523.63
2023-03-24T03:00:22.993Z,96519.84
2023-03-24T03:03:43.879Z,96514.19
2023-03-24T03:06:22.406Z,96512.69
2023-03-24T03:08:53.126Z,96505.16
2023-03-24T03:11:20.126Z,96497.63
2023-03-24T03:13:56.814Z,96494.22
2023-03-24T03:16:39.524Z,96488.97
2023-03-24T03:19:16.683Z,96484.47
2023-03-24T03:21:48.958Z,96484.47
2023-03-24T03:24:27.798Z,96473.19
2023-03-24T03:27:04.322Z,96481.44
2023-03-24T03:29:37.237Z,96483.69
2023-03-24T03:32:09.717Z,96473.88
2023-03-24T03:34:43.384Z,96480.09
2023-03-24T03:37:13.293Z,96472.56
2023-03-24T03:40:03.091Z,96474.63
2023-03-24T03:42:32.201Z,96476.47
2023-03-24T03:44:59.477Z,96469.00
2023-03-24T03:47:29.341Z,96469.00
2023-03-24T03:50:00.671Z,96461.28
2023-03-24T03:52:28.281Z,96460.31
2023-03-24T03:54:56.168Z,96458.47
2023-03-24T03:57:23.563Z,96464.09
2023-03-24T04:00:16.129Z,96460.72
2023-03-24T04:03:06.509Z,96465.81
2023-03-24T04:05:37.342Z,96468.63
2023-03-24T04:08:26.031Z,96471.44
2023-03-24T04:11:11.833Z,96468.81
2023-03-24T04:14:00.776Z,96463.19
2023-03-24T04:17:04.834Z,96457.34
2023-03-24T04:20:21.492Z,96455.81
2023-03-24T04:23:05.726Z,96457.91
2023-03-24T04:25:45.350Z,96460.72
2023-03-24T04:28:38.789Z,96468.63
2023-03-24T04:31:23.608Z,96451.72
2023-03-24T04:33:58.683Z,96460.38
2023-03-24T04:36:42.810Z,96459.63
2023-03-24T04:39:39.299Z,96456.78
2023-03-24T04:42:18.301Z,96453.97
2023-03-24T04:44:46.904Z,96458.28
2023-03-24T04:47:38.780Z,96449.09
2023-03-24T04:50:39.891Z,96440.81
2023-03-24T04:53:12.081Z,96435.00
2023-03-24T04:56:03.192Z,96428.03
2023-03-24T04:59:02.853Z,96435.00
2023-03-24T05:01:30.844Z,96442.88
2023-03-24T05:04:26.852Z,96430.84
2023-03-24T05:06:54.858Z,96426.53
2023-03-24T05:09:27.901Z,96418.63
2023-03-24T05:11:56.380Z,96413.00
2023-03-24T05:14:26.139Z,96416.75
2023-03-24T05:16:56.639Z,96425.03
2023-03-24T05:19:25.831Z,96409.97
2023-03-24T05:21:54.292Z,96399.47
2023-03-24T05:24:22.517Z,96404.00
2023-03-24T05:26:51.152Z,96398.16
2023-03-24T05:29:20.361Z,96397.59
2023-03-24T05:31:51.123Z,96402.50
2023-03-24T05:34:22.558Z,96408.13
2023-03-24T05:37:18.077Z,96409.63
2023-03-24T05:39:49.622Z,96413.75
2023-03-24T05:42:36.160Z,96416.38
2023-03-24T05:45:05.457Z,96411.69
2023-03-24T05:47:33.644Z,96420.72
2023-03-24T05:50:02.186Z,96411.53
2023-03-24T05:52:31.896Z,96429.00
2023-03-24T05:55:12.896Z,96430.53
2023-03-24T05:57:41.589Z,96423.94
2023-03-24T06:00:26.828Z,96438.63
2023-03-24T06:03:01.138Z,96434.13
2023-03-24T06:05:38.794Z,96426.78
2023-03-24T06:08:06.398Z,96426.22
2023-03-24T06:10:37.165Z,96434.88
2023-03-24T06:13:05.042Z,96434.47
2023-03-24T06:15:33.913Z,96435.81
2023-03-24T06:18:21.699Z,96437.84
2023-03-24T06:20:51.359Z,96438.78
2023-03-24T06:23:28.764Z,96439.19
2023-03-24T06:26:09.642Z,96446.50
2023-03-24T06:28:42.473Z,96445.75
2023-03-24T06:31:19.685Z,96472.09
2023-03-24T06:33:50.018Z,96449.50
2023-03-24T06:36:17.466Z,96453.66
2023-03-24T06:38:46.059Z,96449.88
2023-03-24T06:41:17.535Z,96457.81
2023-03-24T06:43:44.966Z,96466.09
2023-03-24T06:46:12.354Z,96482.84
2023-03-24T06:48:43.565Z,96476.63
2023-03-24T06:51:10.683Z,96479.63
2023-03-24T06:53:41.464Z,96481.31
2023-03-24T06:56:08.799Z,96491.84
2023-03-24T06:58:42.824Z,96479.59
2023-03-24T07:01:16.425Z,96499.31
2023-03-24T07:04:05.546Z,96501.00
2023-03-24T07:07:12.457Z,96517.53
2023-03-24T07:09:45.255Z,96510.53
2023-03-24T07:12:14.615Z,96521.81
2023-03-24T07:14:42.383Z,96519.38
2023-03-24T07:17:09.448Z,96521.25
2023-03-24T07:20:08.667Z,96523.09
2023-03-24T07:22:42.236Z,96514.84
2023-03-24T07:25:25.903Z,96515.59
2023-03-24T07:28:02.028Z,96502.41
2023-03-24T07:30:39.895Z,96511.63
2023-03-24T07:33:11.304Z,96515.19
2023-03-24T07:35:43.141Z,96506.19
2023-03-24T07:38:11.073Z,96514.63
2023-03-24T07:40:38.357Z,96513.31
2023-03-24T07:43:06.954Z,96512.03
2023-03-24T07:45:53.368Z,96501.69
2023-03-24T07:48:20.295Z,96498.31
2023-03-24T07:50:47.738Z,96510.72
2023-03-24T07:53:37.924Z,96512.97
2023-03-24T07:56:05.225Z,96504.72
2023-03-24T07:58:33.057Z,96506.25
2023-03-24T08:01:20.240Z,96524.63
2023-03-24T08:03:54.768Z,96531.78
2023-03-24T08:06:47.865Z,96527.66
2023-03-24T08:09:15.185Z,96527.69
2023-03-24T08:11:42.996Z,96518.69
2023-03-24T08:14:09.902Z,96523.94
2023-03-24T08:16:39.421Z,96525.09
2023-03-24T08:19:06.706Z,96530.34
2023-03-24T08:21:33.827Z,96522.84
2023-03-24T08:24:01.507Z,96527.00
2023-03-24T08:26:28.481Z,96530.41
2023-03-24T08:28:55.581Z,96531.53
2023-03-24T08:31:22.688Z,96519.13
2023-03-24T08:33:50.291Z,96525.53
2023-03-24T08:36:17.259Z,96522.53
2023-03-24T08:38:44.354Z,96522.16
2023-03-24T08:41:11.715Z,96522.38
2023-03-24T08:43:39.212Z,96532.53
2023-03-24T08:46:10.548Z,96529.91
2023-03-24T08:48:41.543Z,96530.81
2023-03-24T08:51:13.299Z,96530.81
2023-03-24T08:53:41.011Z,96520.84
2023-03-24T08:56:08.218Z,96518.22
2023-03-24T08:58:35.418Z,96535.38
2023-03-24T09:01:03.145Z,96527.63
2023-03-24T09:03:30.186Z,96523.09
2023-03-24T09:05:57.768Z,96526.13
2023-03-24T09:08:25.662Z,96525.19
2023-03-24T09:10:52.682Z,96518.25
2023-03-24T09:13:21.300Z,96531.00
2023-03-24T09:15:50.671Z,96514.28
2023-03-24T09:18:19.479Z,96514.28
2023-03-24T09:20:47.730Z,96514.09
2023-03-24T09:23:16.140Z,96517.28
2023-03-24T09:25:43.645Z,96508.63
2023-03-24T09:28:10.956Z,96505.97
2023-03-24T09:30:38.966Z,96500.31
2023-03-24T09:33:06.609Z,96497.84
2023-03-24T09:35:33.669Z,96483.34
2023-03-24T09:38:00.720Z,96492.38
2023-03-24T09:40:33.684Z,96484.06
2023-03-24T09:43:05.950Z,96481.06
2023-03-24T09:45:41.112Z,96498.22
2023-03-24T09:48:17.957Z,96488.22
2023-03-24T09:51:08.247Z,96496.53
2023-03-24T09:53:46.890Z,96499.72
2023-03-24T09:56:18.090Z,96494.66
2023-03-24T09:58:50.253Z,96495.81
2023-03-24T10:01:18.462Z,96492.81
2023-03-24T10:03:47.000Z,96482.63
2023-03-24T10:06:27.374Z,96474.16
2023-03-24T10:09:18.115Z,96485.06
2023-03-24T10:12:34.835Z,96485.63
2023-03-24T10:15:37.273Z,96483.34
2023-03-24T10:18:21.055Z,96475.47
2023-03-24T10:20:54.670Z,96480.38
2023-03-24T10:23:36.027Z,96466.63
2023-03-24T10:26:27.217Z,96466.81
2023-03-24T10:29:23.544Z,96490.13
2023-03-24T10:31:59.793Z,96503.69
2023-03-24T10:34:30.918Z,96485.59
2023-03-24T10:37:02.245Z,96466.38
2023-03-24T10:39:43.598Z,96475.97
2023-03-24T10:42:18.827Z,96479.56
2023-03-24T10:44:50.018Z,96470.53
2023-03-24T10:47:23.400Z,96469.75
2023-03-24T10:49:58.181Z,96471.09
2023-03-24T10:52:25.311Z,96473.34
2023-03-24T10:55:03.459Z,96474.06
2023-03-24T10:57:31.030Z,96471.25
2023-03-24T11:00:01.569Z,96472.41
2023-03-24T11:02:34.398Z,96475.59
2023-03-24T11:05:12.985Z,96470.53
2023-03-24T11:07:42.865Z,96470.47
2023-03-24T11:10:09.696Z,96465.00
2023-03-24T11:12:42.378Z,96476.31
2023-03-24T11:15:31.085Z,96473.84
2023-03-24T11:18:03.701Z,96478.00
2023-03-24T11:20:41.768Z,96463.88
2023-03-24T11:23:24.978Z,96462.72
2023-03-24T11:26:08.625Z,96465.72
2023-03-24T11:28:41.818Z,96460.25
2023-03-24T11:31:12.000Z,96454.78
2023-03-24T11:33:47.539Z,96454.19
2023-03-24T11:36:36.067Z,96453.81
2023-03-24T11:39:17.698Z,96447.22
2023-03-24T11:42:16.687Z,96464.56
2023-03-24T11:44:53.898Z,96448.53
2023-03-24T11:47:35.331Z,96458.75
2023-03-24T11:50:17.854Z,96452.69
2023-03-24T11:53:14.875Z,96449.50
2023-03-24T11:55:50.306Z,96427.78
2023-03-24T11:58:40.130Z,96437.75
2023-03-24T12:01:27.098Z,96430.38
2023-03-24T12:04:06.463Z,96429.97
2023-03-24T12:07:11.360Z,96435.41
2023-03-24T12:09:39.195Z,96434.84
2023-03-24T12:12:32.340Z,96437.44
2023-03-24T12:15:39.561Z,96444.19
2023-03-24T12:18:14.285Z,96454.88
2023-03-24T12:20:59.856Z,96435.06
2023-03-24T12:23:43.247Z,96450.13
2023-03-24T12:26:19.520Z,96455.44
2023-03-24T12:28:57.883Z,96501.50
2023-03-24T12:31:34.763Z,96532.38
2023-03-24T12:34:34.005Z,96521.72
2023-03-24T12:37:21.450Z,96530.66
2023-03-24T12:40:23.707Z,96528.94
2023-03-24T12:43:18.854Z,96548.09
2023-03-24T12:45:55.044Z,96558.22
2023-03-24T12:48:35.650Z,96564.97
2023-03-24T12:51:15.013Z,96571.91
2023-03-24T12:54:06.021Z,96563.44
2023-03-24T12:56:47.540Z,96559.69
2023-03-24T12:59:53.651Z,96549.53
2023-03-24T13:02:44.797Z,96548.25
2023-03-24T13:05:26.947Z,96557.03
2023-03-24T13:07:59.162Z,96563.97
2023-03-24T13:10:31.800Z,96568.84
2023-03-24T13:13:06.370Z,96586.88
2023-03-24T13:15:48.066Z,96579.53
2023-03-24T13:18:36.480Z,96580.84
2023-03-24T13:21:20.391Z,96572.38
2023-03-24T13:23:50.186Z,96575.19
2023-03-24T13:26:50.433Z,96572.03
2023-03-24T13:29:56.218Z,96575.22
2023-03-24T13:32:27.160Z,96567.13
2023-03-24T13:35:17.523Z,96563.94
2023-03-24T13:38:17.671Z,96583.13
2023-03-24T13:40:51.942Z,96576.34
2023-03-24T13:43:22.372Z,96580.31
2023-03-24T13:45:52.128Z,96569.22
2023-03-24T13:48:30.049Z,96569.03
2023-03-24T13:51:45.623Z,96562.81
2023-03-24T13:54:28.728Z,96561.16
2023-03-24T13:57:04.578Z,96557.03
2023-03-24T13:59:42.209Z,96556.09
2023-03-24T14:02:17.889Z,96559.31
2023-03-24T14:04:56.639Z,96558.19
2023-03-24T14:07:44.601Z,96570.06
2023-03-24T14:10:36.736Z,96551.06
2023-03-24T14:13:11.875Z,96545.81
2023-03-24T14:15:58.938Z,96546.94
2023-03-24T14:18:26.349Z,96548.63
2023-03-24T14:20:56.748Z,96543.91
2023-03-24T14:23:42.766Z,96538.66
2023-03-24T14:26:31.930Z,96541.25
2023-03-24T14:28:59.148Z,96550.47
2023-03-24T14:31:34.594Z,96530.94
2023-03-24T14:34:20.538Z,96533.00
2023-03-24T14:37:00.367Z,96526.06
2023-03-24T14:39:47.494Z,96538.25
2023-03-24T14:42:32.967Z,96549.16
2023-03-24T14:45:26.788Z,96541.63
2023-03-24T14:48:03.073Z,96523.00
2023-03-24T14:50:30.405Z,96535.22
2023-03-24T14:53:04.275Z,96546.09
2023-03-24T14:55:31.790Z,96546.81
2023-03-24T14:58:12.181Z,96540.97
2023-03-24T15:01:05.909Z,96534.44
2023-03-24T15:03:53.220Z,96532.56
2023-03-24T15:06:26.369Z,96533.31
2023-03-24T15:08:58.893Z,96543.84
2023-03-24T15:11:33.784Z,96539.41
2023-03-24T15:14:03.894Z,96526.25
2023-03-24T15:16:34.486Z,96541.69
2023-03-24T15:19:18.614Z,96546.75
2023-03-24T15:21:51.456Z,96550.31
2023-03-24T15:24:21.521Z,96558.03
2023-03-24T15:27:08.799Z,96561.28
2023-03-24T15:29:39.839Z,96555.03
2023-03-24T15:32:14.429Z,96551.84
2023-03-24T15:34:43.152Z,96550.69
2023-03-24T15:37:48.469Z,96539.78
2023-03-24T15:40:32.864Z,96536.75
2023-03-24T15:43:03.888Z,96539.41
2023-03-24T15:45:50.992Z,96539.00
2023-03-24T15:48:28.316Z,96534.47
2023-03-24T15:51:01.404Z,96531.28
2023-03-24T15:53:42.392Z,96530.72
2023-03-24T15:56:12.574Z,96525.84
2023-03-24T15:58:51.825Z,96533.75
2023-03-24T16:01:27.787Z,96544.81
2023-03-24T16:03:55.573Z,96548.78
2023-03-24T16:06:34.110Z,96542.75
2023-03-24T16:09:09.792Z,96534.09
2023-03-24T16:11:38.089Z,96535.97
2023-03-24T16:14:21.105Z,96529.56
2023-03-24T16:16:48.490Z,96545.34
2023-03-24T16:19:16.220Z,96539.69
2023-03-24T16:21:43.309Z,96537.81
2023-03-24T16:24:12.068Z,96538.03
2023-03-24T16:26:39.294Z,96535.22
2023-03-24T16:29:22.166Z,96538.22
2023-03-24T16:32:02.279Z,96531.09
2023-03-24T16:34:31.876Z,96532.75
2023-03-24T16:37:01.559Z,96522.41
2023-03-24T16:39:30.260Z,96532.72
2023-03-24T16:41:59.431Z,96543.97
2023-03-24T16:44:27.757Z,96536.66
2023-03-24T16:46:55.704Z,96528.41
2023-03-24T16:49:23.998Z,96534.03
2023-03-24T16:51:53.365Z,96531.94
2023-03-24T16:54:21.200Z,96537.81
2023-03-24T16:56:48.485Z,96537.59
2023-03-24T16:59:16.260Z,96537.78
2023-03-24T17:01:46.407Z,96541.88
2023-03-24T17:04:21.486Z,96546.38
2023-03-24T17:06:53.034Z,96547.28
2023-03-24T17:09:21.532Z,96546.31
2023-03-24T17:11:51.791Z,96538.97
2023-03-24T17:14:19.210Z,96551.53
2023-03-24T17:16:49.344Z,96551.69
2023-03-24T17:19:19.030Z,96554.31
2023-03-24T17:21:50.268Z,96542.84
2023-03-24T17:24:17.801Z,96551.63
2023-03-24T17:26:44.965Z,96554.06
2023-03-24T17:29:13.403Z,96545.97
2023-03-24T17:31:43.466Z,96555.72
2023-03-24T17:34:21.443Z,96546.09
2023-03-24T17:36:51.314Z,96553.63
2023-03-24T17:39:20.426Z,96553.22
2023-03-24T17:41:47.612Z,96566.31
2023-03-24T17:44:14.546Z,96560.84
2023-03-24T17:46:56.082Z,96570.38
2023-03-24T17:49:23.046Z,96565.69
2023-03-24T17:51:49.952Z,96568.81
2023-03-24T17:54:22.430Z,96566.59
2023-03-24T17:56:50.800Z,96569.41
2023-03-24T17:59:19.566Z,96569.41
2023-03-24T18:01:47.718Z,96567.66
2023-03-24T18:04:15.302Z,96572.88
2023-03-24T18:06:46.433Z,96570.63
2023-03-24T18:09:13.697Z,96574.41
2023-03-24T18:11:40.977Z,96568.00
2023-03-24T18:14:09.402Z,96568.22
2023-03-24T18:16:37.323Z,96580.44
2023-03-24T18:22:23.843Z,96565.78
2023-03-24T18:24:52.221Z,96569.88
2023-03-24T18:27:19.502Z,96579.63
2023-03-24T18:29:46.400Z,96575.47
2023-03-24T18:32:13.723Z,96585.56
2023-03-24T18:34:46.164Z,96575.72
2023-03-24T18:37:15.691Z,96577.03
2023-03-24T18:39:44.312Z,96585.81
2023-03-24T18:42:12.677Z,96581.06
2023-03-24T18:44:39.949Z,96591.03
2023-03-24T18:47:07.138Z,96589.09
2023-03-24T18:49:34.170Z,96589.78
2023-03-24T18:52:01.876Z,96598.56
2023-03-24T18:54:29.408Z,96591.56
2023-03-24T18:56:57.682Z,96584.75
2023-03-24T18:59:28.603Z,96581.00
2023-03-24T19:01:55.621Z,96579.06
2023-03-24T19:04:22.568Z,96573.78
2023-03-24T19:06:50.616Z,96585.03
2023-03-24T19:09:22.611Z,96584.59
2023-03-24T19:11:50.283Z,96586.25
2023-03-24T19:14:17.422Z,96580.41
2023-03-24T19:16:46.989Z,96590.13
2023-03-24T19:19:14.357Z,96584.50
2023-03-24T19:21:42.277Z,96591.44
2023-03-24T19:24:10.106Z,96588.63
2023-03-24T19:26:37.051Z,96598.38
2023-03-24T19:29:04.720Z,96605.28
2023-03-24T19:31:33.961Z,96606.56
2023-03-24T19:34:01.100Z,96613.50
2023-03-24T19:36:29.991Z,96613.72
2023-03-24T19:38:58.228Z,96603.56
2023-03-24T19:41:26.886Z,96612.53
2023-03-24T19:43:53.890Z,96608.22
2023-03-24T19:46:21.377Z,96610.25
2023-03-24T19:48:49.558Z,96605.97
2023-03-24T19:51:16.769Z,96618.50
2023-03-24T19:53:43.835Z,96612.13
2023-03-24T19:56:11.427Z,96604.97
2023-03-24T19:58:39.265Z,96610.59
2023-03-24T20:01:07.493Z,96610.59
2023-03-24T20:03:36.716Z,96613.75
2023-03-24T20:06:10.631Z,96613.22
2023-03-24T20:08:38.577Z,96615.47
2023-03-24T20:11:11.049Z,96618.25
2023-03-24T20:13:38.810Z,96615.78
2023-03-24T20:16:07.605Z,96614.50
2023-03-24T20:18:35.992Z,96609.19
2023-03-24T20:21:03.944Z,96612.31
2023-03-24T20:23:31.751Z,96614.69
2023-03-24T20:26:00.309Z,96624.00
2023-03-24T20:28:28.245Z,96611.25
2023-03-24T20:31:02.965Z,96611.59
2023-03-24T20:33:31.729Z,96622.59
2023-03-24T20:36:00.286Z,96624.13
2023-03-24T20:38:28.004Z,96623.91
2023-03-24T20:41:06.695Z,96622.59
2023-03-24T20:43:36.482Z,96628.97
2023-03-24T20:46:05.853Z,96634.81
2023-03-24T20:48:33.471Z,96632.75
2023-03-24T20:51:02.587Z,96634.25
2023-03-24T20:53:33.118Z,96632.97
2023-03-24T20:56:02.352Z,96644.63
2023-03-24T20:58:31.019Z,96640.75
2023-03-24T21:00:58.539Z,96638.91
2023-03-24T21:03:27.605Z,96636.53
2023-03-24T21:05:54.569Z,96637.06
2023-03-24T21:08:21.754Z,96635.53
2023-03-24T21:10:48.883Z,96632.97
2023-03-24T21:13:16.888Z,96634.47
2023-03-24T21:15:44.870Z,96628.84
2023-03-24T21:18:12.174Z,96628.84
2023-03-24T21:20:40.209Z,96633.72
2023-03-24T21:23:09.419Z,96629.16
2023-03-24T21:25:37.852Z,96639.69
2023-03-24T21:28:05.303Z,96638.16
2023-03-24T21:30:33.518Z,96637.94
2023-03-24T21:33:01.080Z,96638.06
2023-03-24T21:35:28.595Z,96639.13
2023-03-24T21:37:56.405Z,96640.22
2023-03-24T21:40:25.766Z,96638.69
2023-03-24T21:42:56.025Z,96633.41
2023-03-24T21:45:23.973Z,96632.47
2023-03-24T21:47:51.473Z,96633.75
2023-03-24T21:50:23.719Z,96620.22
2023-03-24T21:52:55.685Z,96621.75
2023-03-24T21:55:23.533Z,96625.66
2023-03-24T21:57:52.142Z,96626.59
2023-03-24T22:00:30.054Z,96631.47
2023-03-24T22:02:58.521Z,96628.66
2023-03-24T22:05:28.060Z,96620.22
2023-03-24T22:07:56.395Z,96623.56
2023-03-24T22:10:25.885Z,96618.50
2023-03-24T22:12:54.169Z,96612.25
2023-03-24T22:15:21.633Z,96625.53
2023-03-24T22:17:48.952Z,96621.94
2023-03-24T22:20:16.603Z,96630.38
2023-03-24T22:22:43.929Z,96632.47
2023-03-24T22:25:14.521Z,96627.38
2023-03-24T22:27:42.617Z,96631.28
2023-03-24T22:30:12.618Z,96633.84
2023-03-24T22:32:41.479Z,96623.91
2023-03-24T22:35:09.122Z,96627.47
2023-03-24T22:37:37.459Z,96629.75
2023-03-24T22:40:07.032Z,96626.19
2023-03-24T22:42:34.101Z,96640.56
2023-03-24T22:45:01.152Z,96644.41
2023-03-24T22:47:29.203Z,96643.13
2023-03-24T22:49:56.333Z,96639.56
2023-03-24T22:52:23.412Z,96640.13
2023-03-24T22:54:50.581Z,96643.88
2023-03-24T22:57:18.939Z,96636.00
2023-03-24T22:59:46.178Z,96643.13
2023-03-24T23:02:13.224Z,96635.78
2023-03-24T23:04:42.036Z,96640.22
2023-03-24T23:07:09.457Z,96647.13
2023-03-24T23:09:37.040Z,96653.50
2023-03-24T23:12:04.821Z,96652.41
2023-03-24T23:14:32.073Z,96660.06
2023-03-24T23:16:59.752Z,96652.72
2023-03-24T23:19:28.327Z,96662.16
2023-03-24T23:21:55.303Z,96659.09
2023-03-24T23:24:22.410Z,96670.34
2023-03-24T23:26:49.444Z,96668.81
2023-03-24T23:29:16.411Z,96671.41
2023-03-24T23:31:43.831Z,96669.56
2023-03-24T23:34:11.896Z,96670.34
2023-03-24T23:36:45.225Z,96666.25
2023-03-24T23:39:12.926Z,96654.69
2023-03-24T23:41:40.247Z,96650.03
2023-03-24T23:44:07.343Z,96667.13
2023-03-24T23:46:34.284Z,96662.78
2023-03-24T23:49:01.845Z,96661.25
2023-03-24T23:51:28.990Z,96670.00
2023-03-24T23:53:57.169Z,96667.53
2023-03-24T23:56:24.209Z,96655.00
2023-03-24T23:58:52.757Z,96650.69
